Time;durP1;ratioP1;P1;durP2;ratioP2;P2;SDS_P1;SDS_P2;PMS_P1;PMS_P2;Temp;Humidity;BMP_temperature;BMP_pressure;BME280_temperature;BME280_humidity;BME280_pressure;Samples;Min_cycle;Max_cycle;Signal;HPM_P1;HPM_P2
2023/08/14 00:00:42;;;;;;;3.03;2.75;;;14.80;99.90;;;;;;4987050;28;20061;-81
2023/08/14 00:03:08;;;;;;;4.68;3.00;;;14.70;99.90;;;;;;4988052;28;20050;-80
2023/08/14 00:05:34;;;;;;;2.80;2.55;;;14.70;99.90;;;;;;4988178;28;20137;-80
2023/08/14 00:08:00;;;;;;;4.20;3.83;;;14.80;99.90;;;;;;4966947;28;20424;-80
2023/08/14 00:10:26;;;;;;;3.40;3.10;;;14.70;99.90;;;;;;4980316;28;20046;-80
2023/08/14 00:12:52;;;;;;;2.97;2.78;;;14.70;99.90;;;;;;4988727;28;20143;-80
2023/08/14 00:15:17;;;;;;;3.45;2.97;;;14.70;99.90;;;;;;4988226;28;20117;-81
2023/08/14 00:17:43;;;;;;;4.00;3.13;;;14.70;99.90;;;;;;4988613;28;20626;-81
2023/08/14 00:20:09;;;;;;;3.30;3.00;;;14.60;99.90;;;;;;4990269;28;20141;-81
2023/08/14 00:22:35;;;;;;;4.50;3.13;;;14.60;99.90;;;;;;4989446;28;20053;-80
2023/08/14 00:25:00;;;;;;;5.60;3.17;;;14.60;99.90;;;;;;4988820;28;20050;-80
2023/08/14 00:27:26;;;;;;;3.97;3.10;;;14.60;99.90;;;;;;4987343;28;20046;-80
2023/08/14 00:29:51;;;;;;;3.03;2.75;;;14.50;99.90;;;;;;4988917;28;20456;-80
2023/08/14 00:32:17;;;;;;;4.53;3.28;;;14.60;99.90;;;;;;5001387;28;20052;-80
2023/08/14 00:34:43;;;;;;;3.53;3.17;;;14.60;99.90;;;;;;4988895;28;20038;-80
2023/08/14 00:37:08;;;;;;;3.75;3.38;;;14.60;99.90;;;;;;4989536;28;20058;-80
2023/08/14 00:39:34;;;;;;;4.82;3.20;;;14.50;99.90;;;;;;4989274;28;20101;-80
2023/08/14 00:41:59;;;;;;;3.60;3.20;;;14.50;99.90;;;;;;4990075;28;20061;-80
2023/08/14 00:44:25;;;;;;;4.45;3.95;;;14.50;99.90;;;;;;4989287;28;20473;-80
2023/08/14 00:46:51;;;;;;;4.85;3.90;;;14.50;99.90;;;;;;4988998;28;20054;-80
2023/08/14 00:49:17;;;;;;;3.67;3.25;;;14.40;99.90;;;;;;4987803;28;20038;-80
2023/08/14 00:51:42;;;;;;;3.80;3.13;;;14.40;99.90;;;;;;4988258;28;20515;-80
2023/08/14 00:54:09;;;;;;;3.72;3.42;;;14.40;99.90;;;;;;4985092;28;20073;-80
2023/08/14 00:56:34;;;;;;;5.97;3.78;;;14.40;99.90;;;;;;4989684;28;20046;-80
2023/08/14 00:59:00;;;;;;;4.47;3.63;;;14.40;99.90;;;;;;4982555;28;20057;-80
2023/08/14 01:01:26;;;;;;;4.68;4.25;;;14.40;99.90;;;;;;4983423;28;20053;-80
2023/08/14 01:03:53;;;;;;;4.50;4.10;;;14.30;99.90;;;;;;4987673;28;20227;-80
2023/08/14 01:06:18;;;;;;;5.00;4.50;;;14.30;99.90;;;;;;4990277;28;20042;-80
2023/08/14 01:08:44;;;;;;;6.78;4.75;;;14.30;99.90;;;;;;4988625;28;20046;-80
2023/08/14 01:12:07;;;;;;;5.40;4.90;;;14.40;99.90;;;;;;5000126;28;20053;-80
2023/08/14 01:14:34;;;;;;;8.13;5.28;;;14.40;99.90;;;;;;4937769;28;20097;-80
2023/08/14 01:17:06;;;;;;;8.27;5.35;;;14.40;99.90;;;;;;4984243;28;20058;-80
2023/08/14 01:19:36;;;;;;;5.70;5.13;;;14.30;99.90;;;;;;4989374;28;20774;-80
2023/08/14 01:22:22;;;;;;;5.60;5.05;;;14.40;99.90;;;;;;4988145;28;20046;-80
2023/08/14 01:24:59;;;;;;;5.53;4.88;;;14.50;99.90;;;;;;4988048;28;20058;-80
2023/08/14 01:27:26;;;;;;;7.20;5.22;;;14.40;99.90;;;;;;4988423;28;20560;-80
2023/08/14 01:29:59;;;;;;;6.45;5.85;;;14.30;99.90;;;;;;4988422;28;20089;-80
2023/08/14 01:32:26;;;;;;;6.72;6.03;;;14.30;99.90;;;;;;4987990;28;20600;-80
2023/08/14 01:34:53;;;;;;;9.55;5.93;;;14.30;99.90;;;;;;4987942;28;20401;-80
2023/08/14 01:37:43;;;;;;;7.38;6.32;;;14.30;99.90;;;;;;4987985;28;20051;-80
2023/08/14 01:40:13;;;;;;;7.88;5.97;;;14.30;99.90;;;;;;4987408;28;20050;-80
2023/08/14 01:42:39;;;;;;;6.53;5.80;;;14.30;99.90;;;;;;4987213;28;20050;-80
2023/08/14 01:45:15;;;;;;;6.82;6.00;;;14.30;99.90;;;;;;4988052;28;20117;-81
2023/08/14 01:47:42;;;;;;;9.32;6.50;;;14.20;99.90;;;;;;4982721;28;20167;-80
2023/08/14 01:50:08;;;;;;;6.80;6.10;;;14.20;99.90;;;;;;4982138;28;20050;-80
2023/08/14 01:52:34;;;;;;;9.90;6.90;;;14.30;99.90;;;;;;4969622;28;20129;-81
2023/08/14 01:55:02;;;;;;;7.15;6.25;;;14.20;99.90;;;;;;4981339;28;20125;-80
2023/08/14 01:57:28;;;;;;;7.07;6.32;;;14.10;99.90;;;;;;4987277;28;20042;-80
2023/08/14 01:59:54;;;;;;;7.88;6.10;;;13.90;99.90;;;;;;4987560;28;20056;-80
2023/08/14 02:02:19;;;;;;;7.40;6.40;;;14.10;99.90;;;;;;4985321;28;20386;-80
2023/08/14 02:04:45;;;;;;;11.40;6.85;;;14.20;99.90;;;;;;4988011;28;20481;-80
2023/08/14 02:07:11;;;;;;;8.38;7.18;;;14.40;99.90;;;;;;4988547;28;20583;-80
2023/08/14 02:09:37;;;;;;;9.43;7.28;;;14.10;99.90;;;;;;4988282;28;20133;-80
2023/08/14 02:12:04;;;;;;;8.15;7.18;;;14.10;99.90;;;;;;4988774;28;20129;-80
2023/08/14 02:14:30;;;;;;;7.10;6.40;;;14.10;99.90;;;;;;4985663;28;20050;-80
2023/08/14 02:16:56;;;;;;;7.72;6.70;;;14.60;99.90;;;;;;4988408;28;20065;-81
2023/08/14 02:19:21;;;;;;;10.13;7.43;;;14.10;99.90;;;;;;4988907;28;20034;-81
2023/08/14 02:21:47;;;;;;;8.90;7.28;;;14.00;99.90;;;;;;4976665;28;20074;-80
2023/08/14 02:24:13;;;;;;;7.88;6.68;;;14.00;99.90;;;;;;4969067;28;20077;-81
2023/08/14 02:26:38;;;;;;;9.82;7.45;;;14.00;99.90;;;;;;4987046;28;20038;-81
2023/08/14 02:29:04;;;;;;;7.65;6.93;;;14.00;99.90;;;;;;4989176;28;20050;-81
2023/08/14 02:31:29;;;;;;;8.27;7.40;;;14.00;99.90;;;;;;4986206;28;20053;-81
2023/08/14 02:33:58;;;;;;;7.88;6.93;;;14.00;99.90;;;;;;4976456;28;20622;-81
2023/08/14 02:36:24;;;;;;;8.10;7.40;;;14.00;99.90;;;;;;4968085;28;20046;-81
2023/08/14 02:38:50;;;;;;;9.70;7.78;;;14.00;99.90;;;;;;4975778;28;20046;-81
2023/08/14 02:41:16;;;;;;;8.40;7.10;;;14.00;99.90;;;;;;4971081;28;20058;-81
2023/08/14 02:43:42;;;;;;;9.10;7.95;;;14.00;99.90;;;;;;4971039;28;20138;-81
2023/08/14 02:46:08;;;;;;;8.23;7.40;;;14.00;99.90;;;;;;4986020;28;20034;-81
2023/08/14 02:48:33;;;;;;;7.38;6.68;;;13.90;99.90;;;;;;4967908;28;20046;-81
2023/08/14 02:50:59;;;;;;;11.00;7.45;;;13.90;99.90;;;;;;4987016;28;20057;-81
2023/08/14 02:53:24;;;;;;;9.55;7.53;;;14.00;99.90;;;;;;4986363;28;20453;-81
2023/08/14 02:55:51;;;;;;;9.15;8.15;;;13.90;99.90;;;;;;4988106;28;20082;-81
2023/08/14 02:58:17;;;;;;;9.95;7.53;;;13.90;99.90;;;;;;4972874;28;20073;-81
2023/08/14 03:00:45;;;;;;;8.85;7.95;;;13.90;99.90;;;;;;4984097;28;20039;-81
2023/08/14 03:03:10;;;;;;;9.27;8.05;;;13.90;99.90;;;;;;4984272;28;20066;-81
2023/08/14 03:05:37;;;;;;;10.07;8.20;;;13.90;99.90;;;;;;4985937;28;20080;-81
2023/08/14 03:08:03;;;;;;;9.25;7.43;;;13.90;99.90;;;;;;4987248;28;20492;-81
2023/08/14 03:10:29;;;;;;;8.50;7.70;;;13.90;99.90;;;;;;4986395;28;20042;-81
2023/08/14 03:12:56;;;;;;;9.73;8.15;;;13.80;99.90;;;;;;4988091;28;20038;-81
2023/08/14 03:15:22;;;;;;;9.00;8.10;;;13.80;99.90;;;;;;4987107;28;20038;-81
2023/08/14 03:17:47;;;;;;;8.95;8.02;;;13.80;99.90;;;;;;4986387;28;20034;-81
2023/08/14 03:20:13;;;;;;;8.57;7.55;;;13.80;99.90;;;;;;4986624;28;20042;-81
2023/08/14 03:22:39;;;;;;;10.75;8.52;;;14.00;99.90;;;;;;4988238;28;20153;-81
2023/08/14 03:25:05;;;;;;;9.52;8.63;;;13.70;99.90;;;;;;4986382;28;20057;-81
2023/08/14 03:27:30;;;;;;;9.40;8.15;;;13.80;99.90;;;;;;4986592;28;20050;-81
2023/08/14 03:29:56;;;;;;;11.23;8.13;;;13.70;99.90;;;;;;4983875;28;20056;-81
2023/08/14 03:32:21;;;;;;;10.57;8.30;;;13.70;99.90;;;;;;4979155;28;20043;-81
2023/08/14 03:34:47;;;;;;;13.27;9.35;;;13.70;99.90;;;;;;4981268;28;20096;-81
2023/08/14 03:37:13;;;;;;;9.48;8.23;;;13.70;99.90;;;;;;4985683;28;20042;-81
2023/08/14 03:39:38;;;;;;;10.75;7.97;;;13.70;99.90;;;;;;4969915;28;20061;-81
2023/08/14 03:42:04;;;;;;;9.45;7.97;;;13.70;99.90;;;;;;4967928;28;20058;-81
2023/08/14 03:44:29;;;;;;;11.93;8.93;;;13.60;99.90;;;;;;4985261;28;20129;-81
2023/08/14 03:46:55;;;;;;;11.50;8.68;;;13.70;99.90;;;;;;4985349;28;20074;-81
2023/08/14 03:49:20;;;;;;;9.13;8.00;;;13.70;99.90;;;;;;4985108;28;20648;-81
2023/08/14 03:51:46;;;;;;;9.88;8.68;;;13.60;99.90;;;;;;4985499;28;20039;-81
2023/08/14 03:54:11;;;;;;;8.57;7.68;;;13.60;99.90;;;;;;4987462;28;20070;-81
2023/08/14 03:56:37;;;;;;;9.20;8.23;;;13.60;99.90;;;;;;4983196;28;20043;-81
2023/08/14 03:59:04;;;;;;;9.55;8.52;;;13.60;99.90;;;;;;4987007;28;20137;-81
2023/08/14 04:01:30;;;;;;;10.68;8.27;;;13.60;99.90;;;;;;4969757;28;20053;-81
2023/08/14 04:03:55;;;;;;;11.85;8.35;;;13.60;99.90;;;;;;4983373;28;20046;-81
2023/08/14 04:06:21;;;;;;;9.95;8.90;;;13.60;99.90;;;;;;4979487;28;20042;-81
2023/08/14 04:08:47;;;;;;;7.88;7.15;;;13.60;99.90;;;;;;4986626;28;20453;-80
2023/08/14 04:11:12;;;;;;;12.18;8.57;;;13.50;99.90;;;;;;4985937;28;20046;-80
2023/08/14 04:13:38;;;;;;;8.45;7.63;;;13.50;99.90;;;;;;4987056;28;20043;-81
2023/08/14 04:16:04;;;;;;;9.55;7.65;;;13.50;99.90;;;;;;4986398;28;20510;-80
2023/08/14 04:18:30;;;;;;;8.70;7.90;;;13.50;99.90;;;;;;4984407;28;20104;-80
2023/08/14 04:20:56;;;;;;;10.05;8.13;;;13.60;99.90;;;;;;4984366;28;20068;-80
2023/08/14 04:23:25;;;;;;;9.30;8.40;;;13.50;99.90;;;;;;4989366;28;20052;-81
2023/08/14 04:25:52;;;;;;;8.68;7.78;;;13.50;99.90;;;;;;4991749;28;20054;-81
2023/08/14 04:28:18;;;;;;;9.88;8.10;;;13.50;99.90;;;;;;4983448;28;20078;-80
2023/08/14 04:30:43;;;;;;;9.18;8.27;;;13.50;99.90;;;;;;4989753;28;20066;-80
2023/08/14 04:33:09;;;;;;;11.10;7.85;;;13.50;99.90;;;;;;4995635;28;20050;-80
2023/08/14 04:35:37;;;;;;;8.43;7.60;;;13.50;99.90;;;;;;4970600;28;20050;-80
2023/08/14 04:38:03;;;;;;;7.82;7.07;;;13.60;99.90;;;;;;4989857;28;20766;-80
2023/08/14 04:40:28;;;;;;;9.50;8.50;;;13.60;99.90;;;;;;4972155;28;20069;-80
2023/08/14 04:42:54;;;;;;;7.60;6.68;;;13.60;99.90;;;;;;4977211;28;20053;-80
2023/08/14 04:45:19;;;;;;;10.48;6.97;;;13.60;99.90;;;;;;4985872;28;20046;-80
2023/08/14 04:47:45;;;;;;;7.40;6.70;;;13.70;99.90;;;;;;4972566;28;20049;-80
2023/08/14 04:50:11;;;;;;;9.88;7.20;;;13.70;99.90;;;;;;4990469;28;20045;-80
2023/08/14 04:52:36;;;;;;;8.32;7.50;;;13.70;99.90;;;;;;4989435;28;20421;-80
2023/08/14 04:55:02;;;;;;;9.30;6.75;;;13.70;99.90;;;;;;4972374;28;20057;-80
2023/08/14 04:57:27;;;;;;;8.57;7.63;;;13.80;99.90;;;;;;4988803;28;20491;-80
2023/08/14 04:59:53;;;;;;;9.73;7.90;;;13.90;99.90;;;;;;4977383;28;20043;-80
2023/08/14 05:02:19;;;;;;;8.07;7.35;;;14.00;99.90;;;;;;4989229;28;20070;-80
2023/08/14 05:04:46;;;;;;;9.55;7.55;;;14.10;99.90;;;;;;4981787;28;20038;-81
2023/08/14 05:07:11;;;;;;;8.68;7.88;;;14.10;99.90;;;;;;4965363;28;20438;-80
2023/08/14 05:09:37;;;;;;;9.93;9.00;;;14.20;99.90;;;;;;4983617;28;20052;-80
2023/08/14 05:12:03;;;;;;;11.38;8.60;;;14.30;99.90;;;;;;4986217;28;20046;-80
2023/08/14 05:14:28;;;;;;;11.55;8.90;;;14.40;99.90;;;;;;4989811;28;20045;-81
2023/08/14 05:16:54;;;;;;;11.48;9.07;;;14.50;99.90;;;;;;4990772;28;20109;-80
2023/08/14 05:19:20;;;;;;;14.05;9.05;;;14.60;99.90;;;;;;4984705;28;20046;-80
2023/08/14 05:21:46;;;;;;;10.82;8.75;;;14.70;99.90;;;;;;4986370;28;20034;-81
2023/08/14 05:24:15;;;;;;;11.73;9.38;;;14.80;99.90;;;;;;4980457;28;20046;-81
2023/08/14 05:26:41;;;;;;;11.30;9.65;;;14.80;99.90;;;;;;4989992;28;20134;-80
2023/08/14 05:29:07;;;;;;;12.25;9.32;;;14.90;99.90;;;;;;4988118;28;20050;-81
2023/08/14 05:31:32;;;;;;;11.52;9.57;;;15.00;99.90;;;;;;4989816;28;20497;-80
2023/08/14 05:33:58;;;;;;;11.25;10.10;;;14.90;99.90;;;;;;4988154;28;20045;-81
2023/08/14 05:36:24;;;;;;;11.82;10.63;;;15.40;99.90;;;;;;4989455;28;20054;-80
2023/08/14 05:38:49;;;;;;;11.80;9.50;;;15.30;99.90;;;;;;4988215;28;20125;-80
2023/08/14 05:41:16;;;;;;;12.82;9.50;;;15.70;99.90;;;;;;4989326;28;20065;-80
2023/08/14 05:43:41;;;;;;;12.27;10.23;;;15.80;99.90;;;;;;4971652;28;20074;-81
2023/08/14 05:46:07;;;;;;;12.20;10.27;;;16.60;99.90;;;;;;4974118;28;20074;-81
2023/08/14 05:48:32;;;;;;;11.98;9.88;;;16.00;99.90;;;;;;4987830;28;20054;-81
2023/08/14 05:50:58;;;;;;;14.63;10.18;;;16.10;99.90;;;;;;4987486;28;20042;-80
2023/08/14 05:53:24;;;;;;;10.75;9.65;;;16.10;99.90;;;;;;4988518;28;20046;-80
2023/08/14 05:55:49;;;;;;;11.63;9.57;;;16.30;99.90;;;;;;4981672;28;20073;-80
2023/08/14 05:58:15;;;;;;;13.88;9.48;;;16.40;99.90;;;;;;4968811;28;20527;-82
2023/08/14 06:00:41;;;;;;;11.68;9.85;;;16.40;99.90;;;;;;4989282;28;20053;-82
2023/08/14 06:03:08;;;;;;;12.68;9.90;;;16.50;99.90;;;;;;4988222;28;20144;-81
2023/08/14 06:05:34;;;;;;;11.10;10.00;;;16.60;99.90;;;;;;4989366;28;20061;-81
2023/08/14 06:08:00;;;;;;;11.32;9.30;;;16.80;99.90;;;;;;4988559;28;20047;-80
2023/08/14 06:10:26;;;;;;;13.05;9.57;;;17.00;99.90;;;;;;4976745;28;20124;-81
2023/08/14 06:12:51;;;;;;;10.35;8.98;;;17.10;99.90;;;;;;4985215;28;20137;-81
2023/08/14 06:15:21;;;;;;;15.10;8.88;;;17.40;99.90;;;;;;4985316;28;20078;-82
2023/08/14 06:17:48;;;;;;;10.13;9.13;;;17.40;99.90;;;;;;4987566;28;20053;-82
2023/08/14 06:20:13;;;;;;;11.43;9.43;;;17.50;99.90;;;;;;4987755;28;20038;-82
2023/08/14 06:22:43;;;;;;;12.45;9.15;;;17.60;99.90;;;;;;4971693;28;20038;-82
2023/08/14 06:25:09;;;;;;;10.90;9.18;;;17.50;99.90;;;;;;4987199;28;20128;-81
2023/08/14 06:27:35;;;;;;;18.73;9.20;;;17.60;99.90;;;;;;4988578;28;20046;-82
2023/08/14 06:30:01;;;;;;;12.82;8.35;;;17.50;99.90;;;;;;4989088;28;20041;-81
2023/08/14 06:32:27;;;;;;;9.70;8.52;;;17.50;99.90;;;;;;4987582;28;20061;-81
2023/08/14 06:34:52;;;;;;;10.77;8.50;;;17.50;99.90;;;;;;4988838;28;20416;-82
2023/08/14 06:37:18;;;;;;;11.05;8.65;;;17.50;99.90;;;;;;4973809;28;20054;-81
2023/08/14 06:39:44;;;;;;;11.55;8.15;;;17.70;99.90;;;;;;4978786;28;20038;-81
2023/08/14 06:42:09;;;;;;;10.10;7.82;;;17.60;99.90;;;;;;4989078;28;20046;-81
2023/08/14 06:44:35;;;;;;;11.00;8.35;;;17.70;99.90;;;;;;4986288;28;20055;-81
2023/08/14 06:47:01;;;;;;;11.00;7.80;;;18.20;99.90;;;;;;4986783;28;20058;-82
2023/08/14 06:49:27;;;;;;;9.43;7.95;;;17.70;99.90;;;;;;4970740;28;20057;-81
2023/08/14 06:51:53;;;;;;;10.70;9.05;;;17.70;99.90;;;;;;4988170;28;20050;-81
2023/08/14 06:54:19;;;;;;;12.70;8.32;;;17.70;99.90;;;;;;4986546;28;20824;-82
2023/08/14 06:56:44;;;;;;;10.35;8.25;;;17.80;99.90;;;;;;4987956;28;20058;-82
2023/08/14 06:59:10;;;;;;;12.30;8.43;;;17.80;99.90;;;;;;4988387;28;20042;-81
2023/08/14 07:01:36;;;;;;;11.70;7.75;;;18.10;99.90;;;;;;4988313;28;20485;-82
2023/08/14 07:04:02;;;;;;;11.15;7.38;;;17.90;99.90;;;;;;4986944;28;20121;-81
2023/08/14 07:06:28;;;;;;;11.80;8.15;;;17.90;99.90;;;;;;4987611;28;20084;-81
2023/08/14 07:08:56;;;;;;;12.60;8.20;;;18.00;99.90;;;;;;4986642;28;20543;-82
2023/08/14 07:11:21;;;;;;;9.18;8.13;;;18.10;99.90;;;;;;4987898;28;20050;-82
2023/08/14 07:13:47;;;;;;;11.20;8.93;;;18.20;99.90;;;;;;4987797;28;20050;-84
2023/08/14 07:16:13;;;;;;;10.27;8.50;;;18.10;99.90;;;;;;4987914;28;20125;-83
2023/08/14 07:18:39;;;;;;;11.18;8.32;;;18.20;99.90;;;;;;4970608;28;20042;-83
2023/08/14 07:21:05;;;;;;;10.98;8.50;;;18.30;99.90;;;;;;4988470;28;20047;-82
2023/08/14 07:23:39;;;;;;;9.73;8.43;;;18.30;99.90;;;;;;4987376;28;20046;-82
2023/08/14 07:26:13;;;;;;;10.80;8.82;;;18.50;99.90;;;;;;4987021;28;20153;-83
2023/08/14 07:28:40;;;;;;;9.50;8.48;;;18.60;99.90;;;;;;4986307;28;20038;-83
2023/08/14 07:31:08;;;;;;;9.80;7.40;;;19.20;99.90;;;;;;4987833;28;20567;-83
2023/08/14 07:33:34;;;;;;;10.05;8.18;;;18.90;99.90;;;;;;4987510;28;20450;-85
2023/08/14 07:36:00;;;;;;;11.27;8.38;;;19.10;99.90;;;;;;4985790;28;20050;-83
2023/08/14 07:38:26;;;;;;;10.65;7.65;;;19.30;99.90;;;;;;4987376;28;20420;-83
2023/08/14 07:40:53;;;;;;;10.15;7.78;;;19.50;99.90;;;;;;4988049;28;20058;-83
2023/08/14 07:43:19;;;;;;;10.07;7.13;;;19.70;99.90;;;;;;4981176;28;20069;-81
2023/08/14 07:45:44;;;;;;;8.55;7.30;;;19.90;99.90;;;;;;4985766;28;20046;-81
2023/08/14 07:48:10;;;;;;;12.02;6.85;;;20.10;99.90;;;;;;4987377;28;20042;-83
2023/08/14 07:50:36;;;;;;;7.75;6.22;;;20.40;99.90;;;;;;4984815;28;20042;-82
2023/08/14 07:53:02;;;;;;;8.52;5.72;;;20.50;99.90;;;;;;4977744;28;20053;-82
2023/08/14 07:55:28;;;;;;;8.57;5.32;;;20.70;99.90;;;;;;4955605;28;20058;-82
2023/08/14 07:57:53;;;;;;;6.45;5.28;;;20.80;99.90;;;;;;4983892;28;20042;-82
2023/08/14 08:00:19;;;;;;;6.50;5.03;;;20.80;99.90;;;;;;4991573;28;20055;-81
2023/08/14 08:02:45;;;;;;;7.35;4.63;;;20.90;99.90;;;;;;4991514;28;20524;-81
2023/08/14 08:05:11;;;;;;;6.03;4.75;;;21.00;99.90;;;;;;4991185;28;20042;-81
2023/08/14 08:07:36;;;;;;;5.28;4.35;;;21.00;99.90;;;;;;4990017;28;20523;-81
2023/08/14 08:10:05;;;;;;;8.85;5.00;;;21.20;99.90;;;;;;4996488;28;20042;-81
2023/08/14 08:12:31;;;;;;;8.35;4.50;;;21.40;99.90;;;;;;4990017;28;20057;-82
2023/08/14 08:14:56;;;;;;;6.20;4.10;;;21.70;99.90;;;;;;4990003;28;20046;-79
2023/08/14 08:17:22;;;;;;;5.25;3.58;;;21.60;99.90;;;;;;4991370;28;20045;-82
2023/08/14 08:19:47;;;;;;;4.43;3.38;;;21.70;99.90;;;;;;4990899;28;20053;-80
2023/08/14 08:22:13;;;;;;;5.00;3.03;;;21.80;99.90;;;;;;4991094;28;20073;-81
2023/08/14 08:24:39;;;;;;;4.95;3.33;;;21.90;99.90;;;;;;4989233;28;20118;-81
2023/08/14 08:27:05;;;;;;;5.32;3.30;;;22.00;99.90;;;;;;4985407;28;20070;-81
2023/08/14 08:29:30;;;;;;;5.75;3.15;;;22.10;99.90;;;;;;4972851;28;20043;-80
2023/08/14 08:31:56;;;;;;;2.97;2.67;;;22.30;99.90;;;;;;4971447;28;20113;-80
2023/08/14 08:34:21;;;;;;;6.57;2.88;;;22.30;99.90;;;;;;4999437;28;20055;-81
2023/08/14 08:36:47;;;;;;;4.75;2.35;;;22.50;99.90;;;;;;4984987;28;20401;-81
2023/08/14 08:39:13;;;;;;;3.75;2.80;;;22.50;99.90;;;;;;4990549;28;20110;-81
2023/08/14 08:41:43;;;;;;;5.28;3.05;;;22.60;99.90;;;;;;4987887;28;20108;-81
2023/08/14 08:44:32;;;;;;;5.28;2.92;;;22.70;99.90;;;;;;4987736;28;20496;-80
2023/08/14 08:47:10;;;;;;;4.28;2.67;;;22.80;99.90;;;;;;4986976;28;20058;-80
2023/08/14 08:49:36;;;;;;;4.03;2.70;;;22.80;99.90;;;;;;4988936;28;20100;-81
2023/08/14 08:52:03;;;;;;;6.75;2.70;;;22.70;99.90;;;;;;4989315;28;20206;-81
2023/08/14 08:54:30;;;;;;;5.30;2.90;;;22.60;99.90;;;;;;4988818;28;20632;-81
2023/08/14 08:56:56;;;;;;;3.75;2.70;;;22.50;99.90;;;;;;4988375;28;20073;-81
2023/08/14 08:59:23;;;;;;;4.63;2.70;;;22.70;99.90;;;;;;4977651;28;20031;-81
2023/08/14 09:01:49;;;;;;;7.50;2.83;;;22.70;99.90;;;;;;4989281;28;20049;-81
2023/08/14 09:04:15;;;;;;;5.85;2.60;;;22.90;99.90;;;;;;4990437;28;20047;-82
2023/08/14 09:06:41;;;;;;;5.32;2.80;;;23.00;99.90;;;;;;4988974;28;20050;-81
2023/08/14 09:09:08;;;;;;;6.85;3.00;;;23.20;99.90;;;;;;4987608;28;20499;-81
2023/08/14 09:11:34;;;;;;;5.28;3.05;;;23.40;99.90;;;;;;4972160;28;20098;-80
2023/08/14 09:13:59;;;;;;;5.18;3.08;;;23.50;99.90;;;;;;4970401;28;20935;-81
2023/08/14 09:16:27;;;;;;;7.28;3.08;;;23.60;99.90;;;;;;4986840;28;20065;-81
2023/08/14 09:18:57;;;;;;;5.38;3.40;;;23.70;99.90;;;;;;4990052;28;20069;-81
2023/08/14 09:21:24;;;;;;;9.25;3.40;;;23.70;99.90;;;;;;4975441;28;20053;-81
2023/08/14 09:23:50;;;;;;;5.53;2.78;;;23.70;99.90;;;;;;4970177;28;20105;-81
2023/08/14 09:26:15;;;;;;;4.25;2.72;;;23.60;99.90;;;;;;4985844;28;20054;-82
2023/08/14 09:28:41;;;;;;;2.95;2.03;;;23.40;99.90;;;;;;4970432;28;20059;-80
2023/08/14 09:31:12;;;;;;;8.60;2.50;;;23.50;99.90;;;;;;4970299;28;20043;-79
2023/08/14 09:33:39;;;;;;;3.95;2.03;;;23.50;99.90;;;;;;4971065;28;20567;-81
2023/08/14 09:36:05;;;;;;;7.90;2.92;;;23.70;99.90;;;;;;4969645;28;20058;-80
2023/08/14 09:38:31;;;;;;;7.65;2.83;;;23.80;99.90;;;;;;4969889;28;20073;-79
2023/08/14 09:41:00;;;;;;;4.65;2.22;;;23.80;99.90;;;;;;4970347;28;20402;-81
2023/08/14 09:43:28;;;;;;;4.53;2.40;;;23.90;99.90;;;;;;4969871;28;20143;-81
2023/08/14 09:45:56;;;;;;;4.15;1.95;;;23.60;99.90;;;;;;4972523;28;20057;-81
2023/08/14 09:48:22;;;;;;;6.82;2.40;;;23.70;99.90;;;;;;4985357;28;20516;-82
2023/08/14 09:50:51;;;;;;;5.10;2.22;;;23.70;99.90;;;;;;4977657;28;20567;-82
2023/08/14 09:53:17;;;;;;;5.25;1.85;;;23.80;99.90;;;;;;4978092;28;20784;-83
2023/08/14 09:55:43;;;;;;;4.22;1.92;;;23.80;99.90;;;;;;4988399;28;20108;-82
2023/08/14 09:58:10;;;;;;;4.28;1.90;;;23.90;99.90;;;;;;4990164;28;20046;-83
2023/08/14 10:00:37;;;;;;;4.60;2.00;;;23.90;99.90;;;;;;4989489;28;20039;-83
2023/08/14 10:03:07;;;;;;;3.75;2.10;;;23.80;99.90;;;;;;4988916;28;20054;-83
2023/08/14 10:05:33;;;;;;;5.40;2.13;;;23.80;99.90;;;;;;4985741;28;20042;-83
2023/08/14 10:08:01;;;;;;;3.35;1.88;;;23.90;99.90;;;;;;4989216;28;20042;-83
2023/08/14 10:10:30;;;;;;;2.38;1.48;;;23.90;99.90;;;;;;4989410;28;20121;-83
2023/08/14 10:13:01;;;;;;;2.05;1.20;;;23.90;99.90;;;;;;4989974;28;20065;-82
2023/08/14 10:15:31;;;;;;;3.20;1.50;;;24.00;99.90;;;;;;4987934;28;20050;-82
2023/08/14 10:18:01;;;;;;;3.60;1.33;;;24.10;99.90;;;;;;4987417;28;20053;-81
2023/08/14 10:20:31;;;;;;;3.80;1.80;;;24.30;99.90;;;;;;4972432;28;20047;-83
2023/08/14 10:22:57;;;;;;;4.18;1.83;;;24.30;99.90;;;;;;4969803;28;20046;-81
2023/08/14 10:25:23;;;;;;;5.72;1.75;;;24.30;99.90;;;;;;4969116;28;20042;-82
2023/08/14 10:27:50;;;;;;;4.85;1.83;;;24.40;99.90;;;;;;4969576;28;20047;-81
2023/08/14 10:30:20;;;;;;;3.67;1.65;;;24.50;99.90;;;;;;4967730;28;20058;-83
2023/08/14 10:32:47;;;;;;;4.10;1.80;;;24.60;99.90;;;;;;4969349;28;20086;-85
2023/08/14 10:35:12;;;;;;;4.22;1.50;;;24.50;99.90;;;;;;4981043;28;20054;-83
2023/08/14 10:37:44;;;;;;;4.82;1.60;;;24.40;99.90;;;;;;4987716;28;20111;-83
2023/08/14 10:40:19;;;;;;;3.88;1.42;;;24.40;99.90;;;;;;4987807;28;20059;-84
2023/08/14 10:42:53;;;;;;;3.42;1.58;;;24.50;99.70;;;;;;4988177;28;20054;-83
2023/08/14 10:45:22;;;;;;;3.38;1.55;;;24.40;99.90;;;;;;4985456;28;20130;-83
2023/08/14 10:47:49;;;;;;;2.97;1.38;;;24.30;99.90;;;;;;4978731;28;20089;-83
2023/08/14 10:50:17;;;;;;;3.17;1.45;;;24.50;99.90;;;;;;4986366;28;20053;-84
2023/08/14 10:52:48;;;;;;;3.83;1.70;;;24.60;99.90;;;;;;4988236;28;20124;-83
2023/08/14 10:55:18;;;;;;;5.15;1.50;;;24.70;99.70;;;;;;4987689;28;20133;-84
2023/08/14 10:57:45;;;;;;;3.05;1.30;;;24.70;99.70;;;;;;4988065;28;20052;-85
2023/08/14 11:00:22;;;;;;;5.60;1.50;;;24.80;98.50;;;;;;4988231;28;20046;-84
2023/08/14 11:03:07;;;;;;;3.25;1.20;;;24.90;98.50;;;;;;4987605;28;20042;-83
2023/08/14 11:05:37;;;;;;;3.58;1.33;;;24.90;97.20;;;;;;4986652;28;20073;-84
2023/08/14 11:08:02;;;;;;;3.58;1.40;;;24.90;96.80;;;;;;4986402;28;20050;-83
2023/08/14 11:10:31;;;;;;;3.75;1.40;;;25.00;97.80;;;;;;4986773;28;20093;-84
2023/08/14 11:12:57;;;;;;;2.80;1.23;;;25.00;97.20;;;;;;4987462;28;20504;-83
2023/08/14 11:15:23;;;;;;;3.78;1.50;;;25.20;97.40;;;;;;4987833;28;20049;-83
2023/08/14 11:17:49;;;;;;;3.22;1.50;;;25.30;96.30;;;;;;4988071;28;20042;-82
2023/08/14 11:20:15;;;;;;;3.92;1.48;;;25.40;96.20;;;;;;4974936;28;20062;-85
2023/08/14 11:22:46;;;;;;;5.60;1.67;;;25.50;97.00;;;;;;4968510;28;20133;-83
2023/08/14 11:25:14;;;;;;;4.07;1.35;;;25.50;95.40;;;;;;4968139;28;20055;-84
2023/08/14 11:27:39;;;;;;;4.40;1.50;;;25.50;95.10;;;;;;4972123;28;20046;-83
2023/08/14 11:30:06;;;;;;;2.72;1.40;;;25.60;95.10;;;;;;4977919;28;20054;-84
2023/08/14 11:32:32;;;;;;;2.70;1.40;;;25.70;94.50;;;;;;4987155;28;20050;-85
2023/08/14 11:34:58;;;;;;;3.33;1.58;;;25.80;94.50;;;;;;4970167;28;20050;-84
2023/08/14 11:37:23;;;;;;;4.53;1.73;;;25.90;95.20;;;;;;4985871;28;20424;-86
2023/08/14 11:39:49;;;;;;;4.30;1.20;;;26.00;95.40;;;;;;4984762;28;20490;-84
2023/08/14 11:42:15;;;;;;;3.17;1.45;;;25.90;94.00;;;;;;4987783;28;20049;-84
2023/08/14 11:44:40;;;;;;;2.28;1.27;;;25.70;94.10;;;;;;4996322;28;20042;-84
2023/08/14 11:47:06;;;;;;;4.05;1.55;;;25.60;94.70;;;;;;4987539;28;20412;-84
2023/08/14 11:49:36;;;;;;;4.97;1.63;;;25.50;94.50;;;;;;4986543;28;20046;-84
2023/08/14 11:52:03;;;;;;;3.20;1.50;;;25.70;94.00;;;;;;4987375;28;20109;-82
2023/08/14 11:54:30;;;;;;;4.28;1.55;;;25.80;94.60;;;;;;4986929;28;20431;-82
2023/08/14 11:56:56;;;;;;;4.30;1.80;;;25.90;95.20;;;;;;4987735;28;20058;-82
2023/08/14 11:59:21;;;;;;;2.78;1.55;;;26.00;94.90;;;;;;4986051;28;20058;-83
2023/08/14 12:01:47;;;;;;;4.15;1.45;;;26.20;94.10;;;;;;4986710;28;20130;-82
2023/08/14 12:04:13;;;;;;;5.45;1.73;;;26.30;93.20;;;;;;4987383;28;20401;-81
2023/08/14 12:06:38;;;;;;;3.85;1.70;;;26.40;93.80;;;;;;4986900;28;20049;-81
2023/08/14 12:09:09;;;;;;;6.45;1.77;;;26.50;93.50;;;;;;4986155;28;20043;-81
2023/08/14 12:11:37;;;;;;;4.33;1.60;;;26.50;92.10;;;;;;4974592;28;20043;-81
2023/08/14 12:14:05;;;;;;;3.55;1.38;;;26.30;92.10;;;;;;4968030;28;20059;-82
2023/08/14 12:16:30;;;;;;;2.90;1.52;;;26.30;92.60;;;;;;4982887;28;20063;-81
2023/08/14 12:18:56;;;;;;;2.67;1.55;;;26.20;91.60;;;;;;4984325;28;20461;-81
2023/08/14 12:21:28;;;;;;;3.47;1.58;;;26.20;91.90;;;;;;4986854;28;20070;-81
2023/08/14 12:23:54;;;;;;;;;;;26.20;92.50;;;;;;4987343;28;20038;-82
2023/08/14 12:26:20;;;;;;;3.67;1.77;;;26.20;92.60;;;;;;4985811;28;19976;-82
2023/08/14 12:28:46;;;;;;;4.35;1.90;;;26.20;92.50;;;;;;4986156;28;20064;-82
2023/08/14 12:31:14;;;;;;;4.55;1.70;;;26.20;92.80;;;;;;4987249;28;20501;-82
2023/08/14 12:33:41;;;;;;;3.72;1.60;;;26.30;92.30;;;;;;4984600;28;20061;-82
2023/08/14 12:36:10;;;;;;;3.33;1.50;;;26.40;91.80;;;;;;4962698;28;20504;-82
2023/08/14 12:38:37;;;;;;;4.57;1.80;;;26.40;91.70;;;;;;4983842;28;20510;-82
2023/08/14 12:41:03;;;;;;;3.90;1.73;;;26.50;91.30;;;;;;4984731;28;20500;-82
2023/08/14 12:43:29;;;;;;;5.82;1.80;;;26.60;92.30;;;;;;4983043;28;20680;-82